createdAt,value
2023-02-12T00:00:21.236Z,24.60
2023-02-12T00:01:21.236Z,24.00
2023-02-12T00:02:21.290Z,25.00
2023-02-12T00:03:21.263Z,23.60
2023-02-12T00:04:21.180Z,25.00
2023-02-12T00:05:21.161Z,24.00
2023-02-12T00:06:21.148Z,24.60
2023-02-12T00:07:21.170Z,23.10
2023-02-12T00:08:21.163Z,24.10
2023-02-12T00:09:21.111Z,24.80
2023-02-12T00:10:21.110Z,23.20
2023-02-12T00:11:21.105Z,23.10
2023-02-12T00:12:21.102Z,22.90
2023-02-12T00:13:21.120Z,23.40
2023-02-12T00:14:21.092Z,23.20
2023-02-12T00:15:21.051Z,22.30
2023-02-12T00:16:21.075Z,23.00
2023-02-12T00:17:21.026Z,22.80
2023-02-12T00:18:21.011Z,23.50
2023-02-12T00:19:21.041Z,22.30
2023-02-12T00:20:20.996Z,21.90
2023-02-12T00:21:20.973Z,23.50
2023-02-12T00:22:20.969Z,21.70
2023-02-12T00:23:20.952Z,22.40
2023-02-12T00:24:20.995Z,22.10
2023-02-12T00:25:20.943Z,22.10
2023-02-12T00:26:20.929Z,21.80
2023-02-12T00:27:20.908Z,21.30
2023-02-12T00:28:20.949Z,22.80
2023-02-12T00:29:20.890Z,22.10
2023-02-12T00:30:20.931Z,21.50
2023-02-12T00:31:20.995Z,22.40
2023-02-12T00:32:20.858Z,23.00
2023-02-12T00:33:20.836Z,22.40
2023-02-12T00:34:20.832Z,21.50
2023-02-12T00:35:20.832Z,21.60
2023-02-12T00:36:20.830Z,21.20
2023-02-12T00:37:20.785Z,21.00
2023-02-12T00:38:20.786Z,21.10
2023-02-12T00:39:20.787Z,21.40
2023-02-12T00:40:20.763Z,21.90
2023-02-12T00:41:20.807Z,21.20
2023-02-12T00:42:20.754Z,20.60
2023-02-12T00:43:20.727Z,22.10
2023-02-12T00:44:20.694Z,21.20
2023-02-12T00:45:20.705Z,20.90
2023-02-12T00:46:20.851Z,21.10
2023-02-12T00:47:20.698Z,20.60
2023-02-12T00:48:20.644Z,20.60
2023-02-12T00:49:20.640Z,21.60
2023-02-12T00:50:20.636Z,21.30
2023-02-12T00:51:20.651Z,20.60
2023-02-12T00:52:20.629Z,20.20
2023-02-12T00:53:20.595Z,20.50
2023-02-12T00:54:20.648Z,20.80
2023-02-12T00:55:20.590Z,19.80
2023-02-12T00:56:20.584Z,21.10
2023-02-12T00:57:20.557Z,20.40
2023-02-12T00:58:20.575Z,21.00
2023-02-12T00:59:20.517Z,21.60
2023-02-12T01:00:20.526Z,20.00
2023-02-12T01:01:20.612Z,20.70
2023-02-12T01:02:20.534Z,20.00
2023-02-12T01:03:20.470Z,21.10
2023-02-12T01:04:20.468Z,19.00
2023-02-12T01:05:20.532Z,20.80
2023-02-12T01:06:20.484Z,18.70
2023-02-12T01:07:20.449Z,18.90
2023-02-12T01:08:20.413Z,18.80
2023-02-12T01:09:20.409Z,18.70
2023-02-12T01:10:20.393Z,18.90
2023-02-12T01:11:20.455Z,20.50
2023-02-12T01:12:20.386Z,18.70
2023-02-12T01:13:20.363Z,19.90
2023-02-12T01:14:20.360Z,20.20
2023-02-12T01:15:20.347Z,19.50
2023-02-12T01:16:20.486Z,19.00
2023-02-12T01:17:20.343Z,19.90
2023-02-12T01:18:20.306Z,20.90
2023-02-12T01:19:20.302Z,19.80
2023-02-12T01:20:20.273Z,19.60
2023-02-12T01:21:20.272Z,20.00
2023-02-12T01:22:20.312Z,19.90
2023-02-12T01:23:20.236Z,20.60
2023-02-12T01:24:20.244Z,18.30
2023-02-12T01:25:20.868Z,18.90
2023-02-12T01:26:20.219Z,18.90
2023-02-12T01:27:20.188Z,18.50
2023-02-12T01:28:20.323Z,18.70
2023-02-12T01:29:20.183Z,18.30
2023-02-12T01:30:20.198Z,19.40
2023-02-12T01:31:20.202Z,19.70
2023-02-12T01:32:20.185Z,18.30
2023-02-12T01:33:20.141Z,18.00
2023-02-12T01:34:20.128Z,18.80
2023-02-12T01:35:20.163Z,19.60
2023-02-12T01:36:20.109Z,19.40
2023-02-12T01:37:20.119Z,18.90
2023-02-12T01:38:20.075Z,17.70
2023-02-12T01:39:20.115Z,18.60
2023-02-12T01:40:20.122Z,17.90
2023-02-12T01:41:20.020Z,18.50
2023-02-12T01:42:20.034Z,18.80
2023-02-12T01:43:20.014Z,18.40
2023-02-12T01:44:19.998Z,17.60
2023-02-12T01:45:19.968Z,18.90
2023-02-12T01:46:20.042Z,18.30
2023-02-12T01:47:19.953Z,17.30
2023-02-12T01:48:19.953Z,18.80
2023-02-12T01:49:19.926Z,18.20
2023-02-12T01:50:19.935Z,18.30
2023-02-12T01:51:19.946Z,19.20
2023-02-12T01:52:19.890Z,19.50
2023-02-12T01:53:19.914Z,17.90
2023-02-12T01:54:19.858Z,17.80
2023-02-12T01:55:19.872Z,18.70
2023-02-12T01:56:19.894Z,18.80
2023-02-12T01:57:19.857Z,18.30
2023-02-12T01:58:19.826Z,17.60
2023-02-12T01:59:19.824Z,18.10
2023-02-12T02:00:19.813Z,18.10
2023-02-12T02:01:19.873Z,18.40
2023-02-12T02:02:19.770Z,17.70
2023-02-12T02:03:19.817Z,17.80
2023-02-12T02:04:19.768Z,18.40
2023-02-12T02:05:19.750Z,16.80
2023-02-12T02:06:19.766Z,17.70
2023-02-12T02:07:19.740Z,17.20
2023-02-12T02:08:19.702Z,17.60
2023-02-12T02:09:19.712Z,17.40
2023-02-12T02:10:19.688Z,17.60
2023-02-12T02:11:19.708Z,17.00
2023-02-12T02:12:19.657Z,17.40
2023-02-12T02:13:19.650Z,17.70
2023-02-12T02:14:19.645Z,17.00
2023-02-12T02:15:19.633Z,18.60
2023-02-12T02:16:19.711Z,17.20
2023-02-12T02:17:19.689Z,17.40
2023-02-12T02:18:19.595Z,18.20
2023-02-12T02:19:19.586Z,18.60
2023-02-12T02:20:19.590Z,18.30
2023-02-12T02:21:19.563Z,18.50
2023-02-12T02:22:19.539Z,18.60
2023-02-12T02:23:19.550Z,19.10
2023-02-12T02:24:19.517Z,19.00
2023-02-12T02:25:19.512Z,18.60
2023-02-12T02:26:19.500Z,18.40
2023-02-12T02:27:19.494Z,18.50
2023-02-12T02:28:19.552Z,18.80
2023-02-12T02:29:19.470Z,18.50
2023-02-12T02:30:19.429Z,18.30
2023-02-12T02:31:19.565Z,20.50
2023-02-12T02:32:19.422Z,18.50
2023-02-12T02:33:19.398Z,18.90
2023-02-12T02:34:19.450Z,18.20
2023-02-12T02:35:19.401Z,17.30
2023-02-12T02:36:19.412Z,18.40
2023-02-12T02:37:19.374Z,18.50
2023-02-12T02:38:19.363Z,18.70
2023-02-12T02:39:19.349Z,19.90
2023-02-12T02:40:19.346Z,18.50
2023-02-12T02:41:19.336Z,18.50
2023-02-12T02:42:19.293Z,19.30
2023-02-12T02:43:19.345Z,18.60
2023-02-12T02:44:19.268Z,19.50
2023-02-12T02:45:19.312Z,20.10
2023-02-12T02:46:19.347Z,19.40
2023-02-12T02:47:19.260Z,20.30
2023-02-12T02:48:19.221Z,20.30
2023-02-12T02:49:19.210Z,18.90
2023-02-12T02:50:19.215Z,19.20
2023-02-12T02:51:19.238Z,19.70
2023-02-12T02:52:19.178Z,20.60
2023-02-12T02:53:19.161Z,21.10
2023-02-12T02:54:19.166Z,20.60
2023-02-12T02:55:19.202Z,19.90
2023-02-12T02:56:19.182Z,20.90
2023-02-12T02:57:19.137Z,21.60
2023-02-12T02:58:19.135Z,20.90
2023-02-12T02:59:19.093Z,20.80
2023-02-12T03:00:19.096Z,20.90
2023-02-12T03:01:19.143Z,20.10
2023-02-12T03:02:19.118Z,20.70
2023-02-12T03:03:19.123Z,20.10
2023-02-12T03:04:19.032Z,20.30
2023-02-12T03:05:19.038Z,21.10
2023-02-12T03:06:19.021Z,21.20
2023-02-12T03:07:19.018Z,19.30
2023-02-12T03:08:19.023Z,20.60
2023-02-12T03:09:18.977Z,22.30
2023-02-12T03:10:18.961Z,20.20
2023-02-12T03:11:18.954Z,20.50
2023-02-12T03:12:18.984Z,19.10
2023-02-12T03:13:18.938Z,20.10
2023-02-12T03:14:18.960Z,19.20
2023-02-12T03:15:18.897Z,19.50
2023-02-12T03:16:18.914Z,18.90
2023-02-12T03:17:18.891Z,19.60
2023-02-12T03:18:18.874Z,18.90
2023-02-12T03:19:18.886Z,19.50
2023-02-12T03:20:18.830Z,20.00
2023-02-12T03:21:18.840Z,19.90
2023-02-12T03:22:18.845Z,19.30
2023-02-12T03:23:18.813Z,20.40
2023-02-12T03:24:18.781Z,19.90
2023-02-12T03:25:18.811Z,19.20
2023-02-12T03:26:18.783Z,19.80
2023-02-12T03:27:18.791Z,19.50
2023-02-12T03:28:18.875Z,19.60
2023-02-12T03:29:18.735Z,20.50
2023-02-12T03:30:18.736Z,20.00
2023-02-12T03:31:18.796Z,20.30
2023-02-12T03:32:18.734Z,20.50
2023-02-12T03:33:18.726Z,20.30
2023-02-12T03:34:18.745Z,20.50
2023-02-12T03:35:18.671Z,21.00
2023-02-12T03:36:18.688Z,20.30
2023-02-12T03:37:18.645Z,20.40
2023-02-12T03:38:18.628Z,20.20
2023-02-12T03:39:18.609Z,21.30
2023-02-12T03:40:18.664Z,20.80
2023-02-12T03:41:18.589Z,20.90
2023-02-12T03:42:18.579Z,21.60
2023-02-12T03:43:18.579Z,21.50
2023-02-12T03:44:18.586Z,21.20
2023-02-12T03:45:18.563Z,20.80
2023-02-12T03:46:18.633Z,20.60
2023-02-12T03:47:18.539Z,21.40
2023-02-12T03:48:18.499Z,20.70
2023-02-12T03:49:18.502Z,20.90
2023-02-12T03:50:18.522Z,22.20
2023-02-12T03:51:18.497Z,21.70
2023-02-12T03:52:18.472Z,22.80
2023-02-12T03:53:18.438Z,21.70
2023-02-12T03:54:18.434Z,21.60
2023-02-12T03:55:18.415Z,22.30
2023-02-12T03:56:18.465Z,23.50
2023-02-12T03:57:18.404Z,21.40
2023-02-12T03:58:18.392Z,22.30
2023-02-12T03:59:18.394Z,22.90
2023-02-12T04:00:18.374Z,23.00
2023-02-12T04:01:18.431Z,22.20
2023-02-12T04:02:18.470Z,22.50
2023-02-12T04:03:18.347Z,23.20
2023-02-12T04:04:18.402Z,22.80
2023-02-12T04:05:18.310Z,22.80
2023-02-12T04:06:18.285Z,21.40
2023-02-12T04:07:18.321Z,23.20
2023-02-12T04:08:18.266Z,22.90
2023-02-12T04:09:18.283Z,21.70
2023-02-12T04:10:18.239Z,21.90
2023-02-12T04:11:18.219Z,23.10
2023-02-12T04:12:18.235Z,22.30
2023-02-12T04:13:18.211Z,21.70
2023-02-12T04:14:18.226Z,22.50
2023-02-12T04:15:18.198Z,23.10
2023-02-12T04:16:18.221Z,22.40
2023-02-12T04:17:18.178Z,23.60
2023-02-12T04:18:18.152Z,22.70
2023-02-12T04:19:18.131Z,22.40
2023-02-12T04:20:18.132Z,22.60
2023-02-12T04:21:18.151Z,22.40
2023-02-12T04:22:18.126Z,21.20
2023-02-12T04:23:18.101Z,21.20
2023-02-12T04:24:19.066Z,20.70
2023-02-12T04:25:18.080Z,20.40
2023-02-12T04:26:18.075Z,21.00
2023-02-12T04:27:18.072Z,20.70
2023-02-12T04:28:18.091Z,20.70
2023-02-12T04:29:18.007Z,20.30
2023-02-12T04:30:18.018Z,21.10
2023-02-12T04:31:18.131Z,20.80
2023-02-12T04:32:18.002Z,20.80
2023-02-12T04:33:18.006Z,21.10
2023-02-12T04:34:17.955Z,20.40
2023-02-12T04:35:17.975Z,19.80
2023-02-12T04:36:17.981Z,21.30
2023-02-12T04:37:17.923Z,20.50
2023-02-12T04:38:17.933Z,21.30
2023-02-12T04:39:17.893Z,20.80
2023-02-12T04:40:17.891Z,20.80
2023-02-12T04:41:17.887Z,20.30
2023-02-12T04:42:17.910Z,20.00
2023-02-12T04:43:17.901Z,21.00
2023-02-12T04:44:17.839Z,19.60
2023-02-12T04:45:17.853Z,21.00
2023-02-12T04:46:17.882Z,21.10
2023-02-12T04:47:17.810Z,21.30
2023-02-12T04:48:17.833Z,20.30
2023-02-12T04:49:17.805Z,21.60
2023-02-12T04:50:17.787Z,20.70
2023-02-12T04:51:17.770Z,20.00
2023-02-12T04:52:17.740Z,20.70
2023-02-12T04:53:17.756Z,20.70
2023-02-12T04:54:17.768Z,21.30
2023-02-12T04:55:17.715Z,21.70
2023-02-12T04:56:17.736Z,20.90
2023-02-12T04:57:17.683Z,20.80
2023-02-12T04:58:17.705Z,20.60
2023-02-12T04:59:17.695Z,20.70
2023-02-12T05:00:17.666Z,21.10
2023-02-12T05:01:17.727Z,20.50
2023-02-12T05:02:17.635Z,20.60
2023-02-12T05:03:17.631Z,21.00
2023-02-12T05:04:17.615Z,21.60
2023-02-12T05:05:17.727Z,19.60
2023-02-12T05:06:17.596Z,21.20
2023-02-12T05:07:17.605Z,20.80
2023-02-12T05:08:17.557Z,20.20
2023-02-12T05:09:17.533Z,20.40
2023-02-12T05:10:17.533Z,21.60
2023-02-12T05:11:17.558Z,20.30
2023-02-12T05:12:17.547Z,20.00
2023-02-12T05:13:17.499Z,20.30
2023-02-12T05:14:17.485Z,19.60
2023-02-12T05:15:17.504Z,22.20
2023-02-12T05:16:17.546Z,20.20
2023-02-12T05:17:17.509Z,19.70
2023-02-12T05:18:17.427Z,20.70
2023-02-12T05:19:17.440Z,20.90
2023-02-12T05:20:17.431Z,20.40
2023-02-12T05:21:17.446Z,20.80
2023-02-12T05:22:17.407Z,20.80
2023-02-12T05:23:17.396Z,20.10
2023-02-12T05:24:17.395Z,20.00
2023-02-12T05:25:17.370Z,21.40
2023-02-12T05:26:17.362Z,20.50
2023-02-12T05:27:17.388Z,20.60
2023-02-12T05:28:17.353Z,19.60
2023-02-12T05:29:17.377Z,20.70
2023-02-12T05:30:17.315Z,20.50
2023-02-12T05:31:19.988Z,20.00
2023-02-12T05:32:17.359Z,20.70
2023-02-12T05:33:17.285Z,20.30
2023-02-12T05:34:17.273Z,19.60
2023-02-12T05:35:17.239Z,20.30
2023-02-12T05:36:17.245Z,20.00
2023-02-12T05:37:17.243Z,20.10
2023-02-12T05:38:17.241Z,20.20
2023-02-12T05:39:17.228Z,20.10
2023-02-12T05:40:17.184Z,19.60
2023-02-12T05:41:17.170Z,21.00
2023-02-12T05:42:17.155Z,20.00
2023-02-12T05:43:17.162Z,20.20
2023-02-12T05:44:17.296Z,19.50
2023-02-12T05:45:17.132Z,20.50
2023-02-12T05:46:17.187Z,20.30
2023-02-12T05:47:17.109Z,19.60
2023-02-12T05:48:17.070Z,19.30
2023-02-12T05:49:17.095Z,19.40
2023-02-12T05:50:17.100Z,20.30
2023-02-12T05:51:17.046Z,19.80
2023-02-12T05:52:17.033Z,19.90
2023-02-12T05:53:17.025Z,19.70
2023-02-12T05:54:17.050Z,19.70
2023-02-12T05:55:16.999Z,19.90
2023-02-12T05:56:17.000Z,20.10
2023-02-12T05:57:16.969Z,19.70
2023-02-12T05:58:16.955Z,20.70
2023-02-12T05:59:17.005Z,19.70
2023-02-12T06:00:16.933Z,20.40
2023-02-12T06:01:16.929Z,19.60
2023-02-12T06:02:16.994Z,20.40
2023-02-12T06:03:16.915Z,20.70
2023-02-12T06:04:16.952Z,18.80
2023-02-12T06:05:16.925Z,20.00
2023-02-12T06:06:16.863Z,19.40
2023-02-12T06:07:16.908Z,20.50
2023-02-12T06:08:16.853Z,20.10
2023-02-12T06:09:16.884Z,20.40
2023-02-12T06:10:16.812Z,19.50
2023-02-12T06:11:16.831Z,21.20
2023-02-12T06:12:16.833Z,20.70
2023-02-12T06:13:16.786Z,20.80
2023-02-12T06:14:16.778Z,20.30
2023-02-12T06:15:16.776Z,24.10
2023-02-12T06:16:16.765Z,23.70
2023-02-12T06:17:16.727Z,22.20
2023-02-12T06:18:16.757Z,24.90
2023-02-12T06:19:16.730Z,24.20
2023-02-12T06:20:16.685Z,25.30
2023-02-12T06:21:16.717Z,24.50
2023-02-12T06:22:16.678Z,22.00
2023-02-12T06:23:16.704Z,21.40
2023-02-12T06:24:16.647Z,20.90
2023-02-12T06:25:16.655Z,21.20
2023-02-12T06:26:16.638Z,19.80
2023-02-12T06:27:16.648Z,20.20
2023-02-12T06:28:16.725Z,20.10
2023-02-12T06:29:16.588Z,20.50
2023-02-12T06:30:16.576Z,19.70
2023-02-12T06:31:16.659Z,19.70
2023-02-12T06:32:16.675Z,19.40
2023-02-12T06:33:16.560Z,19.90
2023-02-12T06:34:16.549Z,19.80
2023-02-12T06:35:16.523Z,20.20
2023-02-12T06:36:16.501Z,19.50
2023-02-12T06:37:16.529Z,20.00
2023-02-12T06:38:16.517Z,19.90
2023-02-12T06:39:16.530Z,20.50
2023-02-12T06:40:16.473Z,20.50
2023-02-12T06:41:16.460Z,20.80
2023-02-12T06:42:16.486Z,24.60
2023-02-12T06:43:16.459Z,21.90
2023-02-12T06:44:16.436Z,21.10
2023-02-12T06:45:16.431Z,21.40
2023-02-12T06:46:16.458Z,21.40
2023-02-12T06:47:16.401Z,19.80
2023-02-12T06:48:16.420Z,19.30
2023-02-12T06:49:16.436Z,20.50
2023-02-12T06:50:16.363Z,19.70
2023-02-12T06:51:16.414Z,19.50
2023-02-12T06:52:16.369Z,19.80
2023-02-12T06:53:16.321Z,19.80
2023-02-12T06:54:16.336Z,19.30
2023-02-12T06:55:16.382Z,20.00
2023-02-12T06:56:16.291Z,19.60
2023-02-12T06:57:16.271Z,19.00
2023-02-12T06:58:16.262Z,19.30
2023-02-12T06:59:16.299Z,19.70
2023-02-12T07:00:16.296Z,19.10
2023-02-12T07:01:16.252Z,20.10
2023-02-12T07:02:16.211Z,20.00
2023-02-12T07:03:16.205Z,19.30
2023-02-12T07:04:16.259Z,20.00
2023-02-12T07:05:16.198Z,19.50
2023-02-12T07:06:16.204Z,19.90
2023-02-12T07:07:16.160Z,19.80
2023-02-12T07:08:16.122Z,19.60
2023-02-12T07:09:16.135Z,19.40
2023-02-12T07:10:16.138Z,20.10
2023-02-12T07:11:16.117Z,20.70
2023-02-12T07:12:16.154Z,20.30
2023-02-12T07:13:16.123Z,19.40
2023-02-12T07:14:16.087Z,20.50
2023-02-12T07:15:16.056Z,19.30
2023-02-12T07:16:16.116Z,20.70
2023-02-12T07:17:16.049Z,20.00
2023-02-12T07:18:16.040Z,19.50
2023-02-12T07:19:16.017Z,19.20
2023-02-12T07:20:16.014Z,19.30
2023-02-12T07:21:16.001Z,19.90
2023-02-12T07:22:15.986Z,19.30
2023-02-12T07:23:15.997Z,19.60
2023-02-12T07:24:16.027Z,20.30
2023-02-12T07:25:15.940Z,19.20
2023-02-12T07:26:15.935Z,20.20
2023-02-12T07:27:15.913Z,18.10
2023-02-12T07:28:15.916Z,18.60
2023-02-12T07:29:15.942Z,19.80
2023-02-12T07:30:15.881Z,18.80
2023-02-12T07:31:16.052Z,19.40
2023-02-12T07:32:15.932Z,19.40
2023-02-12T07:33:15.844Z,19.10
2023-02-12T07:34:15.818Z,18.80
2023-02-12T07:35:15.836Z,17.80
2023-02-12T07:36:15.874Z,18.00
2023-02-12T07:37:15.821Z,17.80
2023-02-12T07:38:15.776Z,17.30
2023-02-12T07:39:15.798Z,18.30
2023-02-12T07:40:15.800Z,19.40
2023-02-12T07:41:15.744Z,18.60
2023-02-12T07:42:15.738Z,18.40
2023-02-12T07:43:15.720Z,18.20
2023-02-12T07:44:15.728Z,18.00
2023-02-12T07:45:15.731Z,19.10
2023-02-12T07:46:15.789Z,18.80
2023-02-12T07:47:15.681Z,18.90
2023-02-12T07:48:15.651Z,17.70
2023-02-12T07:49:15.676Z,18.20
2023-02-12T07:50:15.654Z,19.20
2023-02-12T07:51:15.623Z,19.70
2023-02-12T07:52:15.673Z,20.90
2023-02-12T07:53:15.636Z,19.50
2023-02-12T07:54:15.604Z,18.10
2023-02-12T07:55:15.571Z,19.20
2023-02-12T07:56:15.561Z,19.40
2023-02-12T07:57:15.581Z,18.60
2023-02-12T07:58:15.576Z,18.80
2023-02-12T07:59:15.530Z,18.20
2023-02-12T08:00:15.511Z,18.80
2023-02-12T08:01:15.516Z,17.90
2023-02-12T08:02:15.585Z,19.20
2023-02-12T08:03:15.484Z,18.60
2023-02-12T08:04:15.550Z,17.70
2023-02-12T08:05:15.463Z,17.80
2023-02-12T08:06:15.456Z,18.40
2023-02-12T08:07:15.488Z,17.30
2023-02-12T08:08:15.451Z,17.80
2023-02-12T08:09:15.442Z,18.90
2023-02-12T08:10:15.423Z,19.20
2023-02-12T08:11:15.388Z,18.60
2023-02-12T08:12:15.399Z,18.50
2023-02-12T08:13:15.509Z,18.30
2023-02-12T08:14:15.486Z,17.50
2023-02-12T08:15:15.360Z,18.20
2023-02-12T08:16:15.368Z,18.40
2023-02-12T08:17:15.317Z,18.30
2023-02-12T08:18:15.305Z,18.30
2023-02-12T08:19:20.292Z,17.80
2023-02-12T08:20:16.310Z,19.00
2023-02-12T08:21:15.282Z,18.90
2023-02-12T08:22:15.259Z,18.00
2023-02-12T08:23:15.240Z,17.90
2023-02-12T08:24:15.274Z,18.00
2023-02-12T08:25:15.311Z,18.40
2023-02-12T08:26:15.231Z,18.50
2023-02-12T08:27:15.252Z,18.20
2023-02-12T08:28:15.262Z,17.80
2023-02-12T08:29:15.228Z,17.50
2023-02-12T08:30:15.548Z,19.20
2023-02-12T08:31:15.300Z,18.10
2023-02-12T08:32:15.270Z,17.50
2023-02-12T08:33:15.132Z,18.70
2023-02-12T08:34:15.123Z,18.90
2023-02-12T08:35:15.146Z,18.50
2023-02-12T08:36:15.113Z,18.10
2023-02-12T08:37:15.123Z,19.90
2023-02-12T08:38:15.119Z,18.40
2023-02-12T08:39:15.077Z,18.80
2023-02-12T08:40:15.041Z,18.30
2023-02-12T08:41:15.059Z,19.20
2023-02-12T08:42:15.055Z,18.10
2023-02-12T08:43:15.034Z,18.50
2023-02-12T08:44:15.089Z,17.50
2023-02-12T08:45:14.999Z,17.70
2023-02-12T08:46:15.011Z,16.90
2023-02-12T08:47:14.989Z,18.70
2023-02-12T08:48:14.963Z,18.40
2023-02-12T08:49:14.988Z,17.80
2023-02-12T08:50:14.990Z,18.10
2023-02-12T08:51:14.921Z,17.70
2023-02-12T08:52:14.943Z,16.50
2023-02-12T08:53:14.888Z,16.20
2023-02-12T08:54:14.883Z,17.30
2023-02-12T08:55:14.904Z,17.50
2023-02-12T08:56:14.851Z,17.40
2023-02-12T08:57:14.870Z,17.60
2023-02-12T08:58:14.821Z,16.90
2023-02-12T08:59:14.837Z,16.40
2023-02-12T09:00:14.916Z,17.50
2023-02-12T09:01:14.882Z,16.90
2023-02-12T09:02:14.826Z,17.10
2023-02-12T09:03:14.777Z,16.30
2023-02-12T09:04:14.806Z,16.40
2023-02-12T09:05:14.762Z,15.70
2023-02-12T09:06:14.765Z,16.60
2023-02-12T09:07:14.735Z,16.40
2023-02-12T09:08:14.753Z,16.70
2023-02-12T09:09:14.730Z,15.90
2023-02-12T09:10:14.704Z,16.60
2023-02-12T09:11:14.694Z,15.80
2023-02-12T09:12:14.693Z,17.70
2023-02-12T09:13:14.664Z,17.60
2023-02-12T09:14:14.714Z,16.00
2023-02-12T09:15:14.670Z,16.40
2023-02-12T09:16:14.668Z,16.20
2023-02-12T09:17:14.625Z,17.10
2023-02-12T09:18:14.605Z,16.10
2023-02-12T09:19:14.603Z,16.50
2023-02-12T09:20:14.617Z,15.50
2023-02-12T09:21:14.622Z,15.50
2023-02-12T09:22:14.578Z,15.70
2023-02-12T09:23:14.547Z,16.60
2023-02-12T09:24:14.526Z,16.20
2023-02-12T09:25:14.514Z,15.50
2023-02-12T09:26:14.551Z,15.90
2023-02-12T09:27:14.524Z,15.80
2023-02-12T09:28:14.580Z,16.10
2023-02-12T09:29:14.472Z,16.30
2023-02-12T09:30:14.488Z,15.40
2023-02-12T09:31:14.680Z,16.30
2023-02-12T09:32:14.477Z,15.70
2023-02-12T09:33:14.448Z,16.60
2023-02-12T09:34:14.441Z,15.40
2023-02-12T09:35:14.400Z,15.90
2023-02-12T09:36:14.379Z,15.60
2023-02-12T09:37:14.418Z,16.00
2023-02-12T09:38:14.394Z,16.00
2023-02-12T09:39:14.361Z,15.60
2023-02-12T09:40:14.350Z,15.50
2023-02-12T09:41:14.409Z,15.80
2023-02-12T09:42:14.335Z,16.60
2023-02-12T09:43:14.316Z,15.60
2023-02-12T09:44:14.335Z,15.80
2023-02-12T09:45:14.288Z,15.60
2023-02-12T09:46:14.308Z,16.40
2023-02-12T09:47:14.284Z,16.10
2023-02-12T09:48:14.285Z,16.20
2023-02-12T09:49:14.252Z,15.90
2023-02-12T09:50:14.221Z,16.60
2023-02-12T09:51:14.234Z,16.90
2023-02-12T09:52:14.240Z,17.70
2023-02-12T09:53:14.226Z,17.00
2023-02-12T09:54:14.204Z,16.90
2023-02-12T09:55:14.164Z,16.80
2023-02-12T09:56:14.164Z,16.90
2023-02-12T09:57:14.182Z,16.60
2023-02-12T09:58:14.147Z,16.70
2023-02-12T09:59:14.148Z,16.90
2023-02-12T10:00:14.108Z,16.60
2023-02-12T10:01:14.166Z,17.10
2023-02-12T10:02:14.092Z,16.30
2023-02-12T10:03:14.212Z,17.30
2023-02-12T10:04:14.126Z,16.30
2023-02-12T10:05:14.082Z,17.30
2023-02-12T10:06:14.073Z,19.00
2023-02-12T10:07:14.043Z,18.30
2023-02-12T10:08:14.054Z,17.60
2023-02-12T10:09:14.056Z,18.20
2023-02-12T10:10:14.026Z,17.90
2023-02-12T10:11:13.988Z,17.40
2023-02-12T10:12:14.034Z,18.00
2023-02-12T10:13:13.972Z,17.90
2023-02-12T10:14:13.975Z,18.50
2023-02-12T10:15:13.986Z,17.90
2023-02-12T10:16:14.014Z,16.70
2023-02-12T10:17:14.031Z,16.10
2023-02-12T10:18:13.920Z,16.80
2023-02-12T10:19:13.916Z,16.10
2023-02-12T10:20:13.881Z,16.50
2023-02-12T10:21:13.880Z,16.10
2023-02-12T10:22:13.877Z,15.60
2023-02-12T10:23:13.887Z,15.60
2023-02-12T10:24:13.859Z,15.20
2023-02-12T10:25:13.831Z,16.10
2023-02-12T10:26:13.816Z,15.90
2023-02-12T10:27:13.840Z,16.10
2023-02-12T10:28:13.795Z,15.90
2023-02-12T10:29:13.848Z,16.10
2023-02-12T10:30:13.759Z,16.10
2023-02-12T10:31:13.824Z,16.00
2023-02-12T10:32:13.739Z,16.50
2023-02-12T10:33:13.748Z,16.80
2023-02-12T10:34:13.729Z,15.00
2023-02-12T10:35:13.771Z,16.50
2023-02-12T10:36:13.727Z,15.70
2023-02-12T10:37:13.689Z,16.10
2023-02-12T10:38:13.678Z,15.60
2023-02-12T10:39:13.676Z,16.80
2023-02-12T10:40:13.687Z,16.10
2023-02-12T10:41:13.637Z,16.10
2023-02-12T10:42:13.628Z,15.80
2023-02-12T10:43:13.628Z,15.70
2023-02-12T10:44:13.620Z,15.50
2023-02-12T10:45:13.641Z,13.90
2023-02-12T10:46:13.598Z,15.70
2023-02-12T10:47:13.583Z,16.20
2023-02-12T10:48:13.567Z,15.10
2023-02-12T10:49:13.570Z,14.60
2023-02-12T10:50:13.566Z,15.80
2023-02-12T10:51:13.539Z,15.40
2023-02-12T10:52:13.507Z,15.30
2023-02-12T10:53:13.520Z,15.60
2023-02-12T10:54:13.516Z,16.00
2023-02-12T10:55:13.466Z,15.50
2023-02-12T10:56:13.464Z,15.70
2023-02-12T10:57:13.449Z,15.50
2023-02-12T10:58:13.462Z,15.40
2023-02-12T10:59:13.440Z,16.80
2023-02-12T11:00:13.446Z,16.60
2023-02-12T11:01:13.400Z,16.70
2023-02-12T11:02:13.427Z,15.60
2023-02-12T11:03:13.402Z,16.30
2023-02-12T11:04:13.376Z,16.00
2023-02-12T11:05:13.385Z,15.40
2023-02-12T11:06:13.392Z,15.40
2023-02-12T11:07:13.355Z,16.00
2023-02-12T11:08:13.309Z,15.40
2023-02-12T11:09:13.298Z,15.80
2023-02-12T11:10:13.312Z,14.90
2023-02-12T11:11:13.278Z,15.20
2023-02-12T11:12:13.354Z,15.10
2023-02-12T11:13:13.251Z,15.30
2023-02-12T11:14:13.253Z,15.50
2023-02-12T11:15:13.251Z,16.40
2023-02-12T11:16:13.267Z,15.60
2023-02-12T11:17:13.233Z,16.00
2023-02-12T11:18:13.221Z,16.00
2023-02-12T11:19:13.183Z,15.50
2023-02-12T11:20:13.225Z,15.60
2023-02-12T11:21:13.180Z,15.60
2023-02-12T11:22:13.181Z,14.90
2023-02-12T11:23:13.151Z,15.20
2023-02-12T11:24:13.122Z,14.90
2023-02-12T11:25:13.113Z,15.80
2023-02-12T11:26:13.145Z,15.10
2023-02-12T11:27:13.131Z,14.40
2023-02-12T11:28:13.160Z,14.90
2023-02-12T11:29:13.215Z,15.40
2023-02-12T11:30:13.082Z,13.50
2023-02-12T11:31:13.147Z,13.80
2023-02-12T11:32:13.060Z,12.90
2023-02-12T11:33:13.041Z,13.80
2023-02-12T11:34:13.049Z,12.60
2023-02-12T11:35:13.016Z,13.00
2023-02-12T11:36:12.992Z,12.70
2023-02-12T11:37:13.029Z,13.20
2023-02-12T11:38:13.010Z,12.90
2023-02-12T11:39:12.963Z,12.90
2023-02-12T11:40:12.961Z,13.40
2023-02-12T11:41:12.922Z,13.20
2023-02-12T11:42:12.937Z,13.30
2023-02-12T11:43:12.971Z,12.80
2023-02-12T11:44:12.906Z,12.70
2023-02-12T11:45:12.891Z,12.10
2023-02-12T11:46:12.881Z,12.60
2023-02-12T11:47:12.863Z,13.10
2023-02-12T11:48:12.884Z,12.70
2023-02-12T11:49:12.886Z,13.30
2023-02-12T11:50:12.823Z,12.80
2023-02-12T11:51:12.855Z,12.70
2023-02-12T11:52:12.795Z,13.00
2023-02-12T11:53:12.815Z,13.40
2023-02-12T11:54:12.816Z,13.60
2023-02-12T11:55:12.796Z,12.70
2023-02-12T11:56:12.795Z,12.00
2023-02-12T11:57:12.766Z,12.40
2023-02-12T11:58:12.750Z,12.20
2023-02-12T11:59:12.723Z,11.50
2023-02-12T12:00:12.735Z,11.50
2023-02-12T12:01:12.755Z,11.10
2023-02-12T12:02:12.720Z,11.20
2023-02-12T12:03:12.848Z,11.70
2023-02-12T12:04:12.698Z,11.90
2023-02-12T12:05:12.644Z,11.10
2023-02-12T12:06:12.668Z,11.60
2023-02-12T12:07:12.648Z,12.00
2023-02-12T12:08:12.668Z,11.80
2023-02-12T12:09:12.659Z,11.60
2023-02-12T12:10:12.597Z,12.10
2023-02-12T12:11:12.600Z,11.50
2023-02-12T12:12:12.565Z,12.00
2023-02-12T12:13:12.572Z,12.30
2023-02-12T12:14:12.559Z,11.80
2023-02-12T12:15:12.557Z,12.40
2023-02-12T12:16:12.572Z,11.30
2023-02-12T12:17:12.531Z,12.00
2023-02-12T12:18:12.544Z,14.70
2023-02-12T12:19:12.524Z,12.30
2023-02-12T12:20:12.512Z,11.60
2023-02-12T12:21:12.540Z,11.00
2023-02-12T12:22:12.449Z,12.10
2023-02-12T12:23:12.454Z,10.60
2023-02-12T12:24:12.428Z,11.50
2023-02-12T12:25:12.416Z,11.70
2023-02-12T12:26:12.428Z,11.40
2023-02-12T12:27:12.695Z,11.20
2023-02-12T12:28:12.417Z,11.70
2023-02-12T12:29:12.407Z,10.50
2023-02-12T12:30:12.392Z,10.80
2023-02-12T12:31:12.414Z,10.70
2023-02-12T12:32:12.345Z,11.90
2023-02-12T12:33:12.376Z,11.70
2023-02-12T12:34:12.329Z,11.80
2023-02-12T12:35:12.314Z,11.00
2023-02-12T12:36:12.421Z,11.60
2023-02-12T12:37:12.283Z,11.80
2023-02-12T12:38:12.305Z,11.10
2023-02-12T12:39:12.274Z,11.30
2023-02-12T12:40:12.251Z,10.30
2023-02-12T12:41:12.282Z,11.40
2023-02-12T12:42:12.227Z,10.30
2023-02-12T12:43:12.240Z,11.70
2023-02-12T12:44:12.249Z,10.30
2023-02-12T12:45:12.199Z,10.60
2023-02-12T12:46:12.236Z,10.10
2023-02-12T12:47:12.221Z,10.80
2023-02-12T12:48:12.218Z,10.70
2023-02-12T12:49:12.134Z,10.80
2023-02-12T12:50:12.141Z,10.40
2023-02-12T12:51:12.157Z,10.30
2023-02-12T12:52:12.115Z,9.90